UWWW Airport Information

Runway Information
Runway 05 Length 8379 ft width 197 ft
Elevation 477 ft Threshold ft Heading 49
Runway 23 Length 8379 ft Width 197 ft
Elevation 410 ft Threshold ft Heading 229
Runway 15 Length 9846 ft width 148 ft
Elevation 421 ft Threshold ft Heading 148
Runway 33 Length 9846 ft Width 148 ft
Elevation 389 ft Threshold ft Heading 328
Airport Frequencies
Type APP Name SAMARA APP Frequency 124.6 MHZ
Type ATIS Name SAMARA ATI Frequency 134.9 MHZ
Type GND Name SAMARA TAX Frequency 119 MHZ
Type MISC Name SAMARA TRA Frequency 131.6 MHZ
Type PMSV Name SAMARA VOL Frequency 126.875 MHZ
Type RDR Name SAMARA KRU Frequency 128 MHZ
Type TWR Name SAMARA TWR Frequency 118.2 MHZ
Airport Navaids
Type NDB Name Samara Frequency 287 KHZ
Type NDB Name Samara Frequency 287 KHZ
Type NDB Name Samara Frequency 287 KHZ
Type NDB Name Samara Frequency 287 KHZ
Airport Weather Information & NOTAM
ADDS - METARS form results

(1736 UTC 03 July 2022)
Data provider http://aviationweather.gov/metar/data/
 
METAR text: UWWW 031730Z 35004MPS CAVOK 20/08 Q1009 R33/CLRD60 NOSIG RMK QFE746/0994
Conditions at: UWWW (KURUMOCH , RU) observed 1730 UTC 03 July 2022
Temperature: 20.0°C (68°F)
Dewpoint: 8.0°C (46°F) [RH = 46%]
Pressure (altimeter): 29.79 inches Hg (1009.0 mb)
Winds: from the N (350 degrees) at 9 MPH (8 knots; 4.1 m/s)
Visibility: 6 or more miles (10+ km)
Ceiling: ceiling and visibility are OK
Clouds: unknown
Weather: no significant weather observed at this time

METAR text: UWWW 031700Z 34004MPS CAVOK 21/08 Q1009 R33/CLRD60 NOSIG RMK QFE746/0994
Conditions at: UWWW (KURUMOCH , RU) observed 1700 UTC 03 July 2022
Temperature: 21.0°C (70°F)
Dewpoint: 8.0°C (46°F) [RH = 43%]
Pressure (altimeter): 29.79 inches Hg (1009.0 mb)
Winds: from the NNW (340 degrees) at 9 MPH (8 knots; 4.1 m/s)
Visibility: 6 or more miles (10+ km)
Ceiling: ceiling and visibility are OK
Clouds: unknown
Weather: no significant weather observed at this time

Forecast for: UWWW (KURUMOCH , RU)
Text: TAF UWWW 031651Z 0318/0418 35005G10MPS 9999 SCT020 TX24/0412Z TN14/0402Z
Forecast period: 1800 UTC 03 July 2022 to 1800 UTC 04 July 2022
Forecast type: FROM: standard forecast or significant change
Winds: from the N (350 degrees) at 12 MPH (10 knots; 5.1 m/s)
gusting to 22 MPH (19 knots; 9.8 m/s)
Visibility: 6 or more miles (10+ km)
Ceiling: at least 12,000 feet AGL
Clouds: scattered clouds at 2000 feet AGL
Weather: no significant weather forecast for this period
Text: TEMPO 0406/0415 01010G15MPS -SHRA BKN016CB
Forecast period: 0600 to 1500 UTC 04 July 2022
Forecast type: TEMPORARY: The following changes expected for less than half the time period
Winds: from the N (10 degrees) at 22 MPH (19 knots; 9.8 m/s)
gusting to 33 MPH (29 knots; 14.9 m/s)
Visibility: missing
Ceiling: 1600 feet AGL
Clouds: broken clouds at 1600 feet AGL
Weather: -SHRA  (light rain showers)